Time;durP1;ratioP1;P1;durP2;ratioP2;P2;SDS_P1;SDS_P2;PMS_P1;PMS_P2;Temp;Humidity;BMP_temperature;BMP_pressure;BME280_temperature;BME280_humidity;BME280_pressure;Samples;Min_cycle;Max_cycle;Signal;HPM_P1;HPM_P2
2022/01/01 00:00:12;;;;;;;0.60;0.60;;;18.90;40.10;;;22.63;26.49;101458.13;5094995;28;20050;-77
2022/01/01 00:02:43;;;;;;;0.80;0.80;;;18.90;40.20;;;22.59;26.53;101459.28;5078484;28;20078;-77
2022/01/01 00:05:11;;;;;;;0.50;0.50;;;18.90;40.20;;;22.64;26.48;101470.50;5077989;28;20101;-78
2022/01/01 00:07:39;;;;;;;0.70;0.70;;;18.90;40.20;;;22.64;26.39;101470.50;5077743;28;20169;-77
2022/01/01 00:10:08;;;;;;;0.60;0.60;;;18.90;40.20;;;22.61;26.43;101467.19;5077455;28;20102;-77
2022/01/01 00:12:35;;;;;;;0.75;0.70;;;18.90;40.20;;;22.63;26.60;101478.59;5093628;28;20062;-77
2022/01/01 00:15:01;;;;;;;0.60;0.60;;;18.80;40.10;;;22.63;26.42;101484.78;5078204;28;20563;-77
2022/01/01 00:17:27;;;;;;;0.77;0.73;;;18.90;40.20;;;22.62;26.67;101480.41;5075737;28;20048;-77
2022/01/01 00:19:53;;;;;;;1.05;0.63;;;18.90;40.20;;;22.62;26.63;101484.88;5077182;28;20073;-77
2022/01/01 00:22:18;;;;;;;0.70;0.70;;;18.90;40.10;;;22.64;26.37;101499.84;5094677;28;20399;-77
2022/01/01 00:24:44;;;;;;;0.50;0.50;;;18.90;40.20;;;22.64;26.52;101506.97;5093122;28;20048;-77
2022/01/01 00:27:10;;;;;;;0.52;0.52;;;18.90;40.20;;;22.63;26.63;101508.78;5112864;28;20071;-77
2022/01/01 00:29:36;;;;;;;0.70;0.70;;;18.90;40.20;;;22.61;26.48;101500.00;5076599;28;20101;-77
2022/01/01 00:32:03;;;;;;;0.60;0.60;;;18.90;40.20;;;22.59;26.52;101501.91;5112986;28;20044;-77
2022/01/01 00:34:28;;;;;;;0.57;0.57;;;18.90;40.20;;;22.59;26.57;101501.91;5090678;28;20131;-77
2022/01/01 00:36:54;;;;;;;0.60;0.60;;;18.90;40.20;;;22.60;26.66;101511.59;5112993;28;20052;-77
2022/01/01 00:39:20;;;;;;;0.65;0.65;;;18.80;40.10;;;22.62;26.36;101523.06;5094459;28;20081;-77
2022/01/01 00:41:47;;;;;;;0.60;0.60;;;18.80;40.20;;;22.61;26.66;101523.16;5113225;28;20109;-77
2022/01/01 00:44:12;;;;;;;0.60;0.60;;;18.80;40.20;;;22.58;26.68;101510.84;5094581;28;20059;-77
2022/01/01 00:46:38;;;;;;;0.80;0.80;;;18.80;40.20;;;22.57;26.61;101520.66;5094589;28;20043;-77
2022/01/01 00:49:04;;;;;;;0.75;0.70;;;18.80;40.20;;;22.57;26.64;101522.47;5094246;28;20471;-77
2022/01/01 00:51:30;;;;;;;0.60;0.60;;;18.80;40.20;;;22.58;26.68;101516.19;5075178;28;20052;-77
2022/01/01 00:53:55;;;;;;;0.60;0.60;;;18.80;40.20;;;22.58;26.64;101518.84;5094256;28;20055;-76
2022/01/01 00:56:21;;;;;;;0.77;0.70;;;18.80;40.20;;;22.56;26.63;101521.59;5092992;28;20059;-77
2022/01/01 00:58:47;;;;;;;0.55;0.55;;;18.80;40.20;;;22.56;26.63;101529.59;5094074;28;20105;-77
2022/01/01 01:01:13;;;;;;;0.70;0.70;;;18.80;40.20;;;22.53;26.78;101519.09;5112354;28;20043;-76
2022/01/01 01:03:38;;;;;;;0.73;0.73;;;18.80;40.20;;;22.55;26.67;101519.91;5094383;28;20052;-77
2022/01/01 01:06:04;;;;;;;0.50;0.50;;;18.80;40.20;;;22.59;26.67;101523.25;5095430;28;20048;-76
2022/01/01 01:08:30;;;;;;;0.60;0.60;;;18.80;40.20;;;22.56;26.72;101524.25;5080423;28;20048;-77
2022/01/01 01:10:57;;;;;;;0.60;0.60;;;18.80;40.20;;;22.55;26.64;101527.91;5096969;28;20059;-77
2022/01/01 01:13:24;;;;;;;0.73;0.70;;;18.80;40.20;;;22.56;26.60;101523.41;5115745;28;20050;-77
2022/01/01 01:15:50;;;;;;;0.68;0.68;;;18.80;40.20;;;22.56;26.64;101526.94;5097602;28;20125;-77
2022/01/01 01:18:17;;;;;;;0.55;0.55;;;18.80;40.20;;;22.53;26.71;101520.91;5097490;28;20043;-77
2022/01/01 01:20:42;;;;;;;0.90;0.70;;;18.80;40.20;;;22.56;26.75;101523.41;5096694;28;20052;-77
2022/01/01 01:23:09;;;;;;;0.60;0.60;;;18.80;40.20;;;22.56;26.75;101528.75;5097465;28;20078;-76
2022/01/01 01:25:40;;;;;;;0.60;0.60;;;18.80;40.20;;;22.56;26.65;101536.75;5080774;28;20445;-76
2022/01/01 01:28:10;;;;;;;0.60;0.60;;;18.80;40.20;;;22.57;26.54;101538.47;5098024;28;20060;-76
2022/01/01 01:30:38;;;;;;;0.57;0.50;;;18.80;40.30;;;22.57;26.56;101533.13;5080261;28;20141;-76
2022/01/01 01:33:06;;;;;;;1.05;0.60;;;18.80;40.20;;;22.56;26.61;101537.59;5080185;28;20043;-76
2022/01/01 01:35:33;;;;;;;0.73;0.60;;;18.80;40.20;;;22.54;26.72;101533.31;5097150;28;20055;-76
2022/01/01 01:38:00;;;;;;;0.60;0.60;;;18.80;40.30;;;22.54;26.72;101530.66;5080159;28;20414;-76
2022/01/01 01:40:28;;;;;;;0.47;0.47;;;18.80;40.30;;;22.54;26.59;101543.97;5080148;28;20047;-76
2022/01/01 01:42:54;;;;;;;0.77;0.77;;;18.80;40.30;;;22.52;26.75;101545.84;5080459;28;20463;-77
2022/01/01 01:45:21;;;;;;;0.65;0.65;;;18.80;40.30;;;22.54;26.53;101550.16;5115407;28;20052;-77
2022/01/01 01:47:49;;;;;;;0.60;0.60;;;18.80;40.30;;;22.54;26.59;101549.31;5115060;28;20130;-77
2022/01/01 01:50:17;;;;;;;0.60;0.60;;;18.80;40.30;;;22.50;26.82;101537.09;5078823;28;20060;-77
2022/01/01 01:52:52;;;;;;;0.88;0.82;;;18.80;40.30;;;22.48;26.77;101531.00;5095454;28;20109;-77
2022/01/01 01:55:18;;;;;;;0.70;0.70;;;18.70;40.30;;;22.52;26.64;101546.72;5095849;28;20480;-77
2022/01/01 01:57:44;;;;;;;0.60;0.60;;;18.70;40.40;;;22.48;26.82;101531.84;5078293;28;20079;-77
2022/01/01 02:03:05;;;;;;;0.52;0.52;;;18.80;40.30;;;22.51;26.71;101533.47;5099482;28;20047;-77
2022/01/01 02:05:35;;;;;;;0.52;0.52;;;18.70;40.30;;;22.46;26.78;101523.09;5114897;28;20464;-77
2022/01/01 02:08:04;;;;;;;0.77;0.57;;;18.70;40.30;;;22.49;26.69;101533.56;5094733;28;20051;-76
2022/01/01 02:10:32;;;;;;;0.50;0.50;;;18.70;40.30;;;22.47;26.75;101524.81;5075813;28;20047;-77
2022/01/01 02:13:02;;;;;;;0.60;0.60;;;18.70;40.30;;;22.49;26.73;101530.91;5079597;28;20047;-77
2022/01/01 02:18:05;;;;;;;0.60;0.60;;;18.70;40.40;;;22.48;26.68;101541.66;5096791;28;20147;-76
2022/01/01 02:20:32;;;;;;;0.50;0.50;;;18.70;40.30;;;22.47;26.82;101529.25;5096388;28;20040;-76
2022/01/01 02:23:00;;;;;;;0.82;0.63;;;18.70;40.30;;;22.47;26.81;101535.47;5095999;28;20414;-76
2022/01/01 02:25:28;;;;;;;0.50;0.50;;;18.70;40.30;;;22.48;26.84;101546.97;5095721;28;20572;-76
2022/01/01 02:27:55;;;;;;;0.70;0.70;;;18.70;40.40;;;22.44;26.80;101546.31;5096238;28;20044;-76
2022/01/01 02:30:21;;;;;;;0.65;0.65;;;18.70;40.40;;;22.44;26.64;101564.09;5094770;28;20051;-76
2022/01/01 02:32:47;;;;;;;0.60;0.60;;;18.70;40.40;;;22.44;26.72;101580.94;5094066;28;20484;-76
2022/01/01 02:35:16;;;;;;;0.70;0.68;;;18.70;40.40;;;22.44;26.61;101582.75;5095952;28;20048;-76
2022/01/01 02:37:42;;;;;;;0.68;0.68;;;18.70;40.40;;;22.43;26.79;101581.03;5094839;28;20048;-76
2022/01/01 02:40:10;;;;;;;0.50;0.50;;;18.70;40.40;;;22.46;26.64;101589.69;5077957;28;20044;-76
2022/01/01 02:42:39;;;;;;;0.60;0.60;;;18.70;40.40;;;22.45;26.76;101584.47;5093876;28;20150;-76
2022/01/01 02:45:08;;;;;;;0.50;0.50;;;18.70;40.40;;;22.43;26.80;101568.56;5079025;28;20043;-76
2022/01/01 02:47:35;;;;;;;0.52;0.52;;;18.70;40.30;;;22.42;26.66;101571.31;5113896;28;20404;-77
2022/01/01 02:50:01;;;;;;;0.50;0.50;;;18.70;40.30;;;22.45;26.82;101581.78;5114043;28;20055;-77
2022/01/01 02:52:28;;;;;;;0.70;0.70;;;18.70;40.30;;;22.45;26.91;101589.78;5077770;28;20044;-76
2022/01/01 02:54:54;;;;;;;0.57;0.57;;;18.70;40.40;;;22.44;26.84;101586.28;5095772;28;20060;-77
2022/01/01 02:57:20;;;;;;;0.70;0.70;;;18.70;40.40;;;22.45;26.65;101590.63;5096522;28;20173;-76
2022/01/01 02:59:46;;;;;;;0.80;0.65;;;18.70;40.40;;;22.44;26.72;101590.75;5077375;28;20078;-77
2022/01/01 03:02:11;;;;;;;0.50;0.50;;;18.70;40.40;;;22.46;26.90;101584.38;5113977;28;20040;-76
2022/01/01 03:04:37;;;;;;;0.60;0.60;;;18.70;40.40;;;22.44;26.74;101577.44;5095475;28;20082;-77
2022/01/01 03:07:03;;;;;;;0.60;0.60;;;18.70;40.40;;;22.41;26.94;101580.25;5095720;28;20051;-77
2022/01/01 03:09:34;;;;;;;0.75;0.75;;;18.70;40.40;;;22.42;26.79;101588.19;5094105;28;20054;-77
2022/01/01 03:12:06;;;;;;;0.75;0.70;;;18.70;40.50;;;22.41;26.83;101580.25;5080180;28;20391;-76
2022/01/01 03:14:32;;;;;;;0.60;0.60;;;18.70;40.40;;;22.42;26.77;101576.63;5113901;28;20058;-76
2022/01/01 03:16:58;;;;;;;0.70;0.70;;;18.70;41.00;;;22.41;26.93;101567.78;5095534;28;20445;-76
2022/01/01 03:19:24;;;;;;;0.70;0.70;;;18.70;40.40;;;22.44;26.74;101577.44;5113470;28;20056;-77
2022/01/01 03:21:50;;;;;;;0.73;0.73;;;18.70;40.40;;;22.39;26.67;101575.88;5095380;28;20138;-76
2022/01/01 03:24:16;;;;;;;0.70;0.70;;;18.60;40.40;;;22.39;26.77;101575.88;5095539;28;20039;-77
2022/01/01 03:26:42;;;;;;;0.50;0.50;;;18.60;40.40;;;22.39;26.83;101591.84;5095260;28;20039;-77
2022/01/01 03:29:08;;;;;;;1.15;0.70;;;18.60;40.50;;;22.38;26.71;101594.59;5078548;28;20490;-77
2022/01/01 03:31:34;;;;;;;0.60;0.60;;;18.60;40.40;;;22.41;26.74;101604.25;5113906;28;20048;-77
2022/01/01 03:33:59;;;;;;;0.80;0.80;;;18.60;40.40;;;22.39;26.79;101602.50;5095587;28;20403;-77
2022/01/01 03:36:29;;;;;;;0.60;0.60;;;18.60;40.40;;;22.39;26.88;101613.19;5094892;28;20039;-77
2022/01/01 03:38:56;;;;;;;0.70;0.70;;;18.60;40.40;;;22.39;26.73;101610.50;5095234;28;20047;-77
2022/01/01 03:41:22;;;;;;;0.75;0.75;;;18.60;40.40;;;22.39;26.87;101604.31;5095122;28;20604;-77
2022/01/01 03:43:48;;;;;;;0.77;0.77;;;18.60;40.40;;;22.37;26.88;101600.91;5095228;28;20073;-77
2022/01/01 03:46:14;;;;;;;0.75;0.75;;;18.60;40.40;;;22.34;26.80;101591.25;5078194;28;20047;-77
2022/01/01 03:48:40;;;;;;;0.70;0.70;;;18.60;40.40;;;22.38;27.00;101603.44;5095349;28;20104;-77
2022/01/01 03:51:06;;;;;;;0.68;0.68;;;18.60;41.00;;;22.39;26.99;101607.84;5095453;28;20081;-76
2022/01/01 03:53:31;;;;;;;0.60;0.52;;;18.60;40.50;;;22.38;26.88;101606.13;5095517;28;20410;-76
2022/01/01 03:55:58;;;;;;;0.55;0.55;;;18.60;40.40;;;22.39;26.72;101604.31;5095047;28;20054;-76
2022/01/01 03:58:25;;;;;;;0.60;0.60;;;18.60;40.50;;;22.35;26.79;101594.78;5095589;28;20048;-76
2022/01/01 04:00:51;;;;;;;0.98;0.88;;;18.60;40.40;;;22.34;26.96;101599.25;5095092;28;20052;-76
2022/01/01 04:03:17;;;;;;;0.50;0.50;;;18.60;40.50;;;22.36;26.80;101608.00;5094745;28;20529;-76
2022/01/01 04:05:44;;;;;;;0.80;0.80;;;18.60;40.50;;;22.37;26.86;101611.56;5112925;28;20073;-76
2022/01/01 04:08:13;;;;;;;0.77;0.70;;;18.60;40.50;;;22.35;26.81;101608.97;5078088;28;20398;-76
2022/01/01 04:10:40;;;;;;;0.60;0.60;;;18.60;40.50;;;22.33;26.87;101607.31;5095367;28;20387;-77
2022/01/01 04:13:09;;;;;;;0.82;0.77;;;18.60;40.50;;;22.33;26.92;101604.66;5093455;28;20048;-76
2022/01/01 04:15:37;;;;;;;0.70;0.70;;;18.60;40.50;;;22.34;26.78;101607.25;5075676;28;20047;-76
2022/01/01 04:18:13;;;;;;;0.50;0.50;;;18.60;40.50;;;22.30;26.77;101608.38;5077851;28;20046;-77
2022/01/01 04:20:44;;;;;;;0.70;0.70;;;18.60;40.50;;;22.34;26.89;101615.25;5096458;28;20134;-76
2022/01/01 04:23:12;;;;;;;0.93;0.70;;;18.60;40.50;;;22.34;27.04;101609.91;5093278;28;20105;-77
2022/01/01 04:25:39;;;;;;;0.98;0.88;;;18.60;40.50;;;22.35;26.82;101632.97;5061104;28;20047;-76
2022/01/01 04:28:06;;;;;;;0.68;0.68;;;18.60;40.50;;;22.34;26.90;101635.69;5077603;28;20061;-76
2022/01/01 04:30:32;;;;;;;0.50;0.50;;;18.60;41.00;;;22.35;26.90;101634.75;5094632;28;20054;-76
2022/01/01 04:32:58;;;;;;;0.70;0.70;;;18.60;40.50;;;22.33;26.90;101637.47;5093250;28;20048;-77
2022/01/01 04:35:25;;;;;;;0.70;0.70;;;18.60;40.50;;;22.33;26.86;101652.63;5094611;28;20049;-77
2022/01/01 04:37:51;;;;;;;0.60;0.52;;;18.60;40.50;;;22.32;26.80;101649.09;5112441;28;20048;-77
2022/01/01 04:40:17;;;;;;;0.70;0.70;;;18.60;40.50;;;22.33;26.93;101650.81;5095111;28;20081;-76
2022/01/01 04:42:43;;;;;;;1.75;0.50;;;18.70;40.50;;;22.36;27.03;101653.31;5096036;28;20052;-76
2022/01/01 04:45:09;;;;;;;0.70;0.70;;;18.70;40.40;;;22.35;26.90;101638.28;5097115;28;20396;-76
2022/01/01 04:47:35;;;;;;;0.40;0.40;;;18.70;40.40;;;22.35;27.01;101627.63;5078963;28;20055;-77
2022/01/01 04:50:03;;;;;;;0.60;0.60;;;18.80;40.30;;;22.41;26.99;101637.06;5097921;28;20122;-76
2022/01/01 04:52:29;;;;;;;0.65;0.65;;;18.80;40.30;;;22.44;26.95;101649.38;5097976;28;20056;-76
2022/01/01 04:54:55;;;;;;;0.73;0.55;;;18.80;40.20;;;22.46;26.93;101640.34;5096660;28;20055;-76
2022/01/01 04:57:25;;;;;;;0.70;0.60;;;18.80;40.10;;;22.43;26.93;101629.84;5096479;28;20044;-76
2022/01/01 04:59:51;;;;;;;0.50;0.50;;;18.90;40.10;;;22.47;26.95;101642.06;5098792;28;20051;-77
2022/01/01 05:02:17;;;;;;;0.85;0.70;;;18.90;40.00;;;22.50;26.82;101647.22;5097623;28;20051;-77
2022/01/01 05:04:42;;;;;;;0.57;0.50;;;19.00;40.00;;;22.52;26.83;101648.00;5115937;28;20063;-76
2022/01/01 05:07:08;;;;;;;0.57;0.57;;;19.00;39.90;;;22.56;26.88;101660.19;5097743;28;20047;-77
2022/01/01 05:09:34;;;;;;;0.70;0.70;;;19.00;39.90;;;22.61;26.75;101675.09;5080713;28;20044;-77
2022/01/01 05:12:00;;;;;;;0.80;0.80;;;19.00;39.80;;;22.60;26.82;101676.03;5097604;28;20064;-77
2022/01/01 05:14:25;;;;;;;0.70;0.70;;;19.10;39.80;;;22.65;26.69;101679.28;5096251;28;20056;-77
2022/01/01 05:16:52;;;;;;;0.60;0.60;;;19.10;39.70;;;22.66;26.81;101684.53;5078869;28;20040;-77
2022/01/01 05:19:19;;;;;;;0.50;0.50;;;19.10;39.70;;;22.67;26.72;101678.25;5096892;28;20052;-77
2022/01/01 05:21:46;;;;;;;0.63;0.63;;;19.10;39.60;;;22.71;26.59;101678.94;5064058;28;20040;-77
2022/01/01 05:24:17;;;;;;;0.75;0.75;;;19.20;39.60;;;22.71;26.68;101673.63;5080620;28;20047;-77
2022/01/01 05:26:44;;;;;;;0.60;0.60;;;19.20;39.60;;;22.79;26.58;101684.72;5064814;28;20048;-77
2022/01/01 05:29:09;;;;;;;0.50;0.50;;;19.30;39.60;;;22.76;26.48;101676.88;5097235;28;20048;-77
2022/01/01 05:31:35;;;;;;;0.55;0.55;;;19.20;39.50;;;22.82;26.53;101686.31;5097370;28;20044;-76
2022/01/01 05:34:03;;;;;;;0.52;0.52;;;19.30;39.50;;;22.84;26.42;101687.13;5097254;28;20051;-77
2022/01/01 05:36:29;;;;;;;0.82;0.70;;;19.30;39.40;;;22.86;26.79;101691.41;5096152;28;20047;-77
2022/01/01 05:38:55;;;;;;;0.63;0.63;;;19.30;39.40;;;22.89;26.54;101693.03;5095457;28;20400;-77
2022/01/01 05:41:21;;;;;;;0.80;0.60;;;19.40;39.40;;;22.93;26.81;101702.56;5080129;28;20047;-77
2022/01/01 05:43:48;;;;;;;0.70;0.70;;;19.40;39.30;;;22.91;26.59;101696.47;5080246;28;20047;-77
2022/01/01 05:46:14;;;;;;;0.57;0.57;;;19.40;39.30;;;22.97;26.36;101708.59;5079956;28;20054;-77
2022/01/01 05:48:40;;;;;;;0.77;0.47;;;19.40;39.30;;;22.95;26.34;101692.69;5097456;28;20487;-77
2022/01/01 05:51:06;;;;;;;0.60;0.60;;;19.40;39.20;;;22.99;26.48;101693.34;5096364;28;20054;-77
2022/01/01 05:53:32;;;;;;;0.60;0.60;;;19.50;39.20;;;23.02;26.28;101707.41;5080178;28;20394;-77
2022/01/01 05:55:58;;;;;;;1.00;0.60;;;19.50;39.20;;;23.02;26.36;101707.41;5096848;28;20048;-77
2022/01/01 05:58:24;;;;;;;0.50;0.50;;;19.50;39.20;;;23.02;26.37;101710.06;5096800;28;20104;-77
2022/01/01 06:00:50;;;;;;;0.50;0.50;;;19.50;39.10;;;23.07;26.21;101707.16;5096767;28;20856;-77
2022/01/01 06:03:17;;;;;;;0.55;0.50;;;19.50;39.10;;;23.09;26.14;101708.78;5096904;28;20104;-77
2022/01/01 06:05:43;;;;;;;0.50;0.50;;;19.50;39.10;;;23.12;26.27;101716.63;5097042;28;20479;-77
2022/01/01 06:08:09;;;;;;;0.80;0.80;;;19.50;39.00;;;23.10;26.41;101705.19;5079850;28;20059;-77
2022/01/01 06:10:35;;;;;;;0.82;0.80;;;19.60;39.00;;;23.13;26.12;101714.81;5114903;28;20054;-77
2022/01/01 06:13:06;;;;;;;0.70;0.70;;;19.60;39.00;;;23.16;26.32;101711.13;5080283;28;20058;-77
2022/01/01 06:15:31;;;;;;;;;;;19.60;39.00;;;23.29;26.23;101714.78;5095710;28;20080;-77
2022/01/01 06:17:59;;;;;;;0.40;0.40;;;19.60;39.00;;;23.25;26.16;101718.56;5075688;28;20005;-77
2022/01/01 06:20:25;;;;;;;0.60;0.60;;;19.60;39.00;;;23.23;26.20;101728.47;5079925;28;20484;-77
2022/01/01 06:22:50;;;;;;;0.60;0.60;;;19.70;39.60;;;23.23;26.24;101725.81;5095549;28;20101;-77
2022/01/01 06:25:17;;;;;;;0.60;0.60;;;19.70;39.00;;;23.22;26.11;101726.75;5094522;28;20115;-77
2022/01/01 06:27:43;;;;;;;0.50;0.50;;;19.70;39.00;;;23.23;26.28;101734.66;5095522;28;20054;-77
2022/01/01 06:30:09;;;;;;;0.60;0.60;;;19.70;39.00;;;23.23;26.48;101729.31;5077992;28;20040;-77
2022/01/01 06:32:35;;;;;;;0.77;0.68;;;19.70;38.90;;;23.22;26.27;101730.28;5096415;28;20395;-77
2022/01/01 06:35:01;;;;;;;0.50;0.50;;;19.70;39.00;;;23.24;26.08;101733.72;5095489;28;20044;-77
2022/01/01 06:37:27;;;;;;;0.60;0.60;;;19.70;39.00;;;23.26;26.36;101742.50;5114487;28;20044;-77
2022/01/01 06:39:53;;;;;;;0.60;0.60;;;19.70;38.90;;;23.27;26.00;101746.00;5096082;28;20055;-77
2022/01/01 06:42:18;;;;;;;0.50;0.50;;;19.70;38.90;;;23.26;26.27;101750.50;5079136;28;20118;-77
2022/01/01 06:44:44;;;;;;;0.57;0.57;;;19.70;38.90;;;23.29;26.32;101747.66;5096075;28;20475;-77
2022/01/01 06:47:10;;;;;;;0.70;0.70;;;19.70;38.90;;;23.29;26.10;101752.16;5114515;28;20044;-77
2022/01/01 06:49:36;;;;;;;0.60;0.60;;;19.70;38.90;;;23.29;26.04;101749.47;5078444;28;20503;-77
2022/01/01 06:52:03;;;;;;;0.57;0.57;;;19.70;38.90;;;23.30;26.21;101748.50;5096217;28;20536;-77
2022/01/01 06:54:29;;;;;;;0.55;0.55;;;19.70;38.90;;;23.32;26.04;101743.94;5114187;28;20044;-77
2022/01/01 06:56:55;;;;;;;0.57;0.57;;;19.70;38.90;;;23.31;25.95;101751.09;5078980;28;20081;-77
2022/01/01 06:59:21;;;;;;;0.50;0.50;;;19.70;38.90;;;23.30;26.23;101760.06;5078240;28;20471;-77
2022/01/01 07:01:47;;;;;;;0.50;0.50;;;19.70;38.90;;;23.36;25.96;101758.84;5095494;28;20035;-77
2022/01/01 07:04:12;;;;;;;0.50;0.50;;;19.70;38.90;;;23.33;26.07;101756.34;5078538;28;20055;-77
2022/01/01 07:06:38;;;;;;;0.60;0.60;;;19.80;38.90;;;23.34;25.96;101752.75;5095680;28;20058;-77
2022/01/01 07:09:04;;;;;;;0.65;0.65;;;19.70;38.80;;;23.35;26.07;101764.25;5078797;28;20047;-77
2022/01/01 07:11:30;;;;;;;0.50;0.50;;;19.80;38.90;;;23.36;26.01;101764.19;5095396;28;20127;-77
2022/01/01 07:13:56;;;;;;;0.70;0.70;;;19.80;38.90;;;23.37;26.00;101763.25;5095397;28;20437;-77
2022/01/01 07:16:22;;;;;;;0.68;0.68;;;19.80;38.90;;;23.38;25.96;101764.09;5095366;28;20406;-77
2022/01/01 07:18:48;;;;;;;0.60;0.60;;;19.80;38.80;;;23.35;26.18;101756.25;5093942;28;20052;-77
2022/01/01 07:21:13;;;;;;;0.70;0.68;;;19.80;38.80;;;23.39;25.85;101760.44;5095397;28;20043;-77
2022/01/01 07:23:39;;;;;;;0.65;0.65;;;19.80;38.80;;;23.37;25.91;101765.91;5095586;28;20055;-77
2022/01/01 07:26:05;;;;;;;0.60;0.60;;;19.80;38.80;;;23.38;26.17;101770.28;5095476;28;20437;-77
2022/01/01 07:28:31;;;;;;;0.60;0.60;;;19.80;38.80;;;23.38;26.15;101770.28;5095303;28;20181;-78
2022/01/01 07:30:57;;;;;;;0.70;0.60;;;19.80;38.80;;;23.41;25.90;101774.59;5078503;28;20069;-76
2022/01/01 07:33:22;;;;;;;0.60;0.57;;;19.80;38.80;;;23.39;25.96;101782.69;5113542;28;20054;-76
2022/01/01 07:35:48;;;;;;;0.50;0.50;;;19.80;38.80;;;23.41;26.07;101782.59;5113725;28;20039;-76
2022/01/01 07:38:14;;;;;;;0.43;0.43;;;19.80;38.80;;;23.44;26.20;101788.63;5095309;28;20054;-76
2022/01/01 07:40:40;;;;;;;0.55;0.55;;;19.80;38.80;;;23.42;26.05;101786.97;5094306;28;20055;-76
2022/01/01 07:43:12;;;;;;;0.50;0.50;;;19.80;38.80;;;23.40;26.04;101795.06;5093662;28;20043;-77
2022/01/01 07:45:37;;;;;;;0.60;0.60;;;19.80;38.80;;;23.41;25.98;101791.47;5078293;28;20043;-76
2022/01/01 07:48:06;;;;;;;0.50;0.50;;;19.80;38.80;;;23.42;25.82;101798.53;5092928;28;20051;-76
2022/01/01 07:50:33;;;;;;;0.60;0.57;;;19.80;38.80;;;23.43;26.18;101797.56;5094917;28;20044;-76
2022/01/01 07:53:00;;;;;;;0.60;0.60;;;19.90;38.80;;;23.43;25.93;101797.56;5094995;28;20047;-77
2022/01/01 07:55:26;;;;;;;0.60;0.60;;;19.80;38.80;;;23.46;25.90;101800.06;5094991;28;20048;-77
2022/01/01 07:57:52;;;;;;;0.50;0.50;;;19.80;38.70;;;23.44;25.96;101793.09;5093021;28;20082;-77
2022/01/01 08:00:18;;;;;;;0.63;0.63;;;19.90;38.80;;;23.44;25.95;101798.44;5060134;28;20108;-77
2022/01/01 08:02:47;;;;;;;0.50;0.50;;;19.90;38.70;;;23.45;25.84;101806.34;5093364;28;20051;-77
2022/01/01 08:05:15;;;;;;;0.80;0.80;;;19.90;38.80;;;23.47;25.88;101809.81;5092980;28;20063;-77
2022/01/01 08:07:41;;;;;;;0.57;0.57;;;19.90;38.80;;;23.47;26.04;101811.59;5094408;28;20047;-77
2022/01/01 08:10:08;;;;;;;0.68;0.68;;;19.90;38.70;;;23.50;26.14;101816.75;5093656;28;20491;-77
2022/01/01 08:12:34;;;;;;;0.50;0.50;;;19.90;38.70;;;23.47;25.95;101816.91;5092774;28;20160;-77
2022/01/01 08:15:00;;;;;;;0.60;0.60;;;19.90;38.70;;;23.45;25.83;101827.69;5098184;28;20040;-77
2022/01/01 08:17:26;;;;;;;0.63;0.63;;;19.90;38.70;;;23.52;26.00;101828.19;5081646;28;20047;-77
2022/01/01 08:19:52;;;;;;;0.77;0.70;;;19.90;38.70;;;23.48;26.00;101832.00;5096971;28;20381;-77
2022/01/01 08:22:18;;;;;;;0.63;0.60;;;19.90;38.70;;;23.51;25.88;101837.16;5116546;28;20044;-76
2022/01/01 08:24:44;;;;;;;0.50;0.50;;;19.90;38.70;;;23.51;25.83;101831.84;5098284;28;20047;-77
2022/01/01 08:27:10;;;;;;;1.00;0.73;;;19.90;38.70;;;23.53;25.94;101840.59;5098435;28;20065;-77
2022/01/01 08:29:37;;;;;;;0.60;0.60;;;19.90;38.70;;;23.55;25.98;101848.53;5079406;28;20479;-77
2022/01/01 08:32:03;;;;;;;0.50;0.50;;;19.90;38.70;;;23.53;25.86;101837.94;5098075;28;20046;-77
2022/01/01 08:34:28;;;;;;;0.60;0.60;;;20.00;38.70;;;23.54;25.76;101845.00;5098677;28;20047;-77
2022/01/01 08:36:54;;;;;;;0.63;0.63;;;19.90;38.70;;;23.57;25.65;101844.84;5098136;28;20051;-77
2022/01/01 08:39:20;;;;;;;0.63;0.63;;;19.90;38.60;;;23.55;25.91;101837.84;5098020;28;20483;-77
2022/01/01 08:41:47;;;;;;;1.42;0.73;;;19.90;38.60;;;23.53;25.98;101832.59;5097353;28;20052;-77
2022/01/01 08:44:13;;;;;;;0.50;0.50;;;20.00;38.60;;;23.57;25.85;101839.50;5081027;28;20035;-77
2022/01/01 08:46:39;;;;;;;0.75;0.60;;;20.00;38.60;;;23.60;25.98;101835.78;5097969;28;20071;-77
2022/01/01 08:49:05;;;;;;;0.60;0.60;;;20.00;38.60;;;23.60;25.77;101849.13;5098092;28;20039;-77
2022/01/01 08:51:34;;;;;;;0.65;0.65;;;20.00;38.60;;;23.59;25.86;101852.72;5097319;28;20537;-77
2022/01/01 08:54:00;;;;;;;0.52;0.52;;;20.00;38.60;;;23.60;26.01;101855.31;5097779;28;20563;-77
2022/01/01 08:56:26;;;;;;;0.60;0.60;;;20.00;38.60;;;23.59;25.99;101853.59;5080953;28;20039;-77
2022/01/01 08:58:52;;;;;;;0.77;0.65;;;20.00;38.60;;;23.61;25.78;101869.53;5095604;28;20051;-76
2022/01/01 09:01:18;;;;;;;0.50;0.50;;;20.00;38.60;;;23.62;25.85;101874.78;5097741;28;20055;-77
2022/01/01 09:03:44;;;;;;;0.47;0.47;;;20.00;38.60;;;23.61;25.83;101859.72;5097881;28;20055;-77
2022/01/01 09:06:10;;;;;;;0.60;0.60;;;20.00;38.60;;;23.61;25.84;101853.53;5095497;28;20051;-77
2022/01/01 09:08:40;;;;;;;0.80;0.70;;;20.00;38.90;;;23.62;25.94;101856.09;5097566;28;20494;-77
2022/01/01 09:11:08;;;;;;;0.52;0.52;;;20.00;38.50;;;23.64;25.87;101866.69;5080208;28;20411;-77
2022/01/01 09:13:34;;;;;;;0.60;0.60;;;20.00;38.50;;;23.64;25.91;101877.38;5097417;28;20044;-77
2022/01/01 09:16:00;;;;;;;0.65;0.65;;;20.00;38.50;;;23.61;25.85;101869.53;5097455;28;20042;-77
2022/01/01 09:18:26;;;;;;;0.50;0.50;;;20.00;38.50;;;23.65;25.71;101877.25;5080491;28;20054;-77
2022/01/01 09:20:52;;;;;;;0.60;0.60;;;20.00;38.50;;;23.66;25.61;101880.81;5062975;28;20433;-77
2022/01/01 09:23:19;;;;;;;0.60;0.60;;;20.00;38.50;;;23.68;25.75;101882.44;5097312;28;20100;-77
2022/01/01 09:25:44;;;;;;;0.50;0.50;;;20.10;38.50;;;23.67;25.74;101879.84;5097086;28;20040;-77
2022/01/01 09:28:10;;;;;;;0.68;0.60;;;20.10;38.50;;;23.67;25.78;101874.50;5097627;28;20494;-77
2022/01/01 09:30:36;;;;;;;0.68;0.68;;;20.10;38.50;;;23.67;25.81;101883.41;5096416;28;20044;-77
2022/01/01 09:33:03;;;;;;;0.70;0.70;;;20.10;38.50;;;23.68;25.52;101887.78;5097283;28;20505;-77
2022/01/01 09:35:29;;;;;;;0.60;0.60;;;20.10;38.50;;;23.70;25.77;101892.19;5080442;28;20048;-77
2022/01/01 09:37:55;;;;;;;0.80;0.60;;;20.10;38.50;;;23.71;25.63;101900.09;5115762;28;20056;-78
2022/01/01 09:40:21;;;;;;;0.60;0.60;;;20.10;38.50;;;23.67;25.73;101895.88;5115339;28;20063;-77
2022/01/01 09:42:47;;;;;;;0.88;0.68;;;20.10;38.50;;;23.71;25.68;101899.25;5095147;28;20052;-77
2022/01/01 09:45:14;;;;;;;0.70;0.70;;;20.10;38.50;;;23.72;25.78;101903.63;5096568;28;20403;-77
2022/01/01 09:47:41;;;;;;;1.33;0.77;;;20.10;38.50;;;23.70;25.63;101902.84;5096053;28;20052;-77
2022/01/01 09:50:09;;;;;;;0.60;0.60;;;20.10;38.40;;;23.73;25.88;101916.88;5095446;28;20075;-77
2022/01/01 09:52:35;;;;;;;0.52;0.52;;;20.10;38.50;;;23.73;25.70;101914.22;5115089;28;20079;-77
2022/01/01 09:55:01;;;;;;;0.60;0.60;;;20.10;38.50;;;23.71;25.64;101915.28;5096878;28;20052;-77
2022/01/01 09:57:26;;;;;;;0.60;0.60;;;20.10;38.50;;;23.73;25.68;101913.38;5096866;28;20419;-77
2022/01/01 09:59:52;;;;;;;0.55;0.55;;;20.10;38.40;;;23.73;25.60;101911.56;5094758;28;20404;-77
2022/01/01 10:02:18;;;;;;;0.50;0.50;;;20.10;38.50;;;23.73;25.63;101910.69;5096756;28;20415;-77
2022/01/01 10:04:51;;;;;;;0.63;0.60;;;20.10;38.50;;;23.72;25.89;101915.16;5114999;28;20047;-76
2022/01/01 10:07:26;;;;;;;0.63;0.63;;;20.10;38.50;;;23.72;25.66;101915.16;5097668;28;20115;-76
2022/01/01 10:09:52;;;;;;;0.57;0.57;;;20.10;38.50;;;23.74;25.81;101920.41;5062854;28;20055;-76
2022/01/01 10:12:19;;;;;;;0.68;0.68;;;20.10;38.50;;;23.76;25.81;101930.06;5096889;28;20055;-76
2022/01/01 10:14:47;;;;;;;0.60;0.60;;;20.10;38.50;;;23.75;25.64;101927.50;5115094;28;20071;-77